createdAt,value
2017-04-05T00:00:46.580Z,0
2017-04-05T00:03:09.943Z,0
2017-04-05T00:05:33.313Z,0
2017-04-05T00:07:56.747Z,0
2017-04-05T00:10:20.234Z,0
2017-04-05T00:12:43.623Z,0
2017-04-05T00:15:07.002Z,0
2017-04-05T00:17:30.468Z,0
2017-04-05T00:19:53.825Z,0
2017-04-05T00:22:17.328Z,0
2017-04-05T00:24:40.648Z,0
2017-04-05T00:26:55.713Z,0
2017-04-05T00:29:19.103Z,0
2017-04-05T00:31:42.343Z,0
2017-04-05T00:34:05.756Z,0
2017-04-05T00:36:29.227Z,0
2017-04-05T00:38:52.600Z,0
2017-04-05T00:41:15.999Z,0
2017-04-05T00:45:15.720Z,0
2017-04-05T00:47:39.136Z,0
2017-04-05T00:50:02.548Z,0
2017-04-05T00:52:25.953Z,0
2017-04-05T00:54:49.339Z,0
2017-04-05T00:57:12.756Z,0
2017-04-05T00:59:36.130Z,0
2017-04-05T01:01:51.039Z,0
2017-04-05T01:04:14.458Z,0
2017-04-05T01:06:37.818Z,0
2017-04-05T01:09:01.039Z,0
2017-04-05T01:11:24.424Z,0
2017-04-05T01:13:47.733Z,0
2017-04-05T01:16:11.102Z,0
2017-04-05T01:18:34.432Z,0
2017-04-05T01:20:57.884Z,0
2017-04-05T01:23:21.163Z,0
2017-04-05T01:25:44.557Z,0
2017-04-05T01:30:09.520Z,0
2017-04-05T01:32:32.912Z,0
2017-04-05T01:34:56.296Z,0
2017-04-05T01:37:19.677Z,0
2017-04-05T01:39:43.064Z,0
2017-04-05T01:42:06.488Z,0
2017-04-05T01:44:29.877Z,0
2017-04-05T01:46:53.294Z,0
2017-04-05T01:51:09.919Z,0
2017-04-05T01:53:33.252Z,0
2017-04-05T01:55:56.640Z,0
2017-04-05T01:58:11.606Z,0
2017-04-05T02:00:35.029Z,0
2017-04-05T02:02:58.395Z,0
2017-04-05T02:05:13.341Z,0
2017-04-05T02:07:36.613Z,0
2017-04-05T02:09:59.902Z,0
2017-04-05T02:12:23.212Z,0
2017-04-05T02:14:46.559Z,0
2017-04-05T02:17:09.881Z,0
2017-04-05T02:19:33.237Z,0
2017-04-05T02:21:56.594Z,0
2017-04-05T02:24:19.962Z,0
2017-04-05T02:26:43.299Z,0
2017-04-05T02:29:06.614Z,0
2017-04-05T02:31:29.953Z,0
2017-04-05T02:33:53.199Z,0
2017-04-05T02:36:16.573Z,0
2017-04-05T02:38:39.828Z,0
2017-04-05T02:41:03.108Z,0
2017-04-05T02:43:26.362Z,0
2017-04-05T02:45:49.600Z,0
2017-04-05T02:48:12.924Z,0
2017-04-05T02:50:36.209Z,0
2017-04-05T02:52:59.523Z,0
2017-04-05T02:55:22.881Z,0
2017-04-05T02:57:37.709Z,0
2017-04-05T03:00:00.969Z,0
2017-04-05T03:02:24.211Z,0
2017-04-05T03:04:47.474Z,0
2017-04-05T03:07:10.813Z,0
2017-04-05T03:09:33.993Z,0
2017-04-05T03:11:57.250Z,0
2017-04-05T03:14:20.544Z,0
2017-04-05T03:16:43.806Z,0
2017-04-05T03:19:07.044Z,0
2017-04-05T03:21:30.318Z,0
2017-04-05T03:23:53.573Z,0
2017-04-05T03:26:16.835Z,0
2017-04-05T03:28:40.069Z,0
2017-04-05T03:31:03.358Z,0
2017-04-05T03:33:26.643Z,0
2017-04-05T03:35:49.870Z,0
2017-04-05T03:38:13.152Z,0
2017-04-05T03:42:12.678Z,0
2017-04-05T03:46:37.585Z,0
2017-04-05T03:49:00.894Z,0
2017-04-05T03:51:24.157Z,0
2017-04-05T03:53:47.318Z,0
2017-04-05T03:56:10.540Z,0
2017-04-05T03:58:33.798Z,0
2017-04-05T04:00:57.000Z,0
2017-04-05T04:03:20.233Z,0
2017-04-05T04:05:43.479Z,0
2017-04-05T04:08:06.748Z,0
2017-04-05T04:10:30.036Z,0
2017-04-05T04:14:54.942Z,0
2017-04-05T04:17:18.163Z,0
2017-04-05T04:19:41.369Z,0
2017-04-05T04:22:04.634Z,0
2017-04-05T04:24:27.835Z,0
2017-04-05T04:26:51.017Z,0
2017-04-05T04:29:14.204Z,0
2017-04-05T04:31:29.016Z,0
2017-04-05T04:33:52.188Z,0
2017-04-05T04:36:15.432Z,0
2017-04-05T04:38:38.660Z,0
2017-04-05T04:41:01.921Z,0
2017-04-05T04:43:25.094Z,0
2017-04-05T04:45:48.339Z,0
2017-04-05T04:48:11.524Z,0
2017-04-05T04:50:34.731Z,0
2017-04-05T04:52:57.885Z,0
2017-04-05T04:55:21.051Z,0
2017-04-05T04:57:44.217Z,5
2017-04-05T05:00:07.464Z,5
2017-04-05T05:02:30.673Z,5
2017-04-05T05:04:53.894Z,5
2017-04-05T05:07:17.133Z,10
2017-04-05T05:09:40.354Z,10
2017-04-05T05:12:04.590Z,15
2017-04-05T05:14:27.769Z,20
2017-04-05T05:16:51.082Z,20
2017-04-05T05:19:14.214Z,25
2017-04-05T05:21:37.385Z,30
2017-04-05T05:24:00.680Z,70
2017-04-05T05:26:23.859Z,110
2017-04-05T05:28:47.221Z,135
2017-04-05T05:31:10.535Z,160
2017-04-05T05:33:33.931Z,185
2017-04-05T05:39:45.630Z,290
2017-04-05T05:42:09.297Z,285
2017-04-05T05:44:32.916Z,345
2017-04-05T05:46:56.666Z,355
2017-04-05T05:49:20.402Z,375
2017-04-05T05:51:35.863Z,415
2017-04-05T05:53:59.732Z,450
2017-04-05T05:56:23.703Z,510
2017-04-05T05:58:47.824Z,510
2017-04-05T06:01:11.852Z,555
2017-04-05T06:03:36.034Z,605
2017-04-05T06:06:00.233Z,605
2017-04-05T06:08:24.512Z,660
2017-04-05T06:10:40.389Z,685
2017-04-05T06:13:04.778Z,725
2017-04-05T06:15:29.250Z,750
2017-04-05T06:17:53.762Z,785
2017-04-05T06:20:18.277Z,815
2017-04-05T06:22:42.748Z,860
2017-04-05T06:25:07.373Z,890
2017-04-05T06:27:31.918Z,910
2017-04-05T06:29:56.694Z,925
2017-04-05T06:32:12.776Z,945
2017-04-05T06:34:37.352Z,940
2017-04-05T06:36:53.495Z,1050
2017-04-05T06:39:09.581Z,1010
2017-04-05T06:41:34.242Z,1045
2017-04-05T06:43:58.625Z,1030
2017-04-05T06:46:23.112Z,360
2017-04-05T06:48:47.467Z,290
2017-04-05T06:51:11.793Z,255
2017-04-05T06:53:36.142Z,250
2017-04-05T06:56:00.419Z,250
2017-04-05T06:58:24.699Z,255
2017-04-05T07:00:49.075Z,265
2017-04-05T07:04:49.831Z,290
2017-04-05T07:07:06.079Z,1245
2017-04-05T07:09:30.959Z,1240
2017-04-05T07:11:56.062Z,1390
2017-04-05T07:22:56.036Z,495
2017-04-05T07:25:21.853Z,500
2017-04-05T07:27:47.770Z,505
2017-04-05T07:30:13.693Z,515
2017-04-05T07:32:39.611Z,525
2017-04-05T07:35:05.734Z,530
2017-04-05T07:37:31.875Z,535
2017-04-05T07:39:58.021Z,540
2017-04-05T07:42:24.358Z,550
2017-04-05T07:44:50.490Z,570
2017-04-05T07:47:16.791Z,610
2017-04-05T07:49:42.947Z,1090
2017-04-05T07:52:09.306Z,1620
2017-04-05T07:54:35.501Z,1530
2017-04-05T07:59:04.214Z,455
2017-04-05T08:01:30.295Z,420
2017-04-05T08:03:56.335Z,410
2017-04-05T08:06:21.994Z,375
2017-04-05T08:08:47.457Z,340
2017-04-05T08:11:12.612Z,340
2017-04-05T08:13:37.793Z,345
2017-04-05T08:16:02.963Z,345
2017-04-05T08:20:38.617Z,365
2017-04-05T08:23:03.663Z,390
2017-04-05T08:25:28.417Z,385
2017-04-05T08:27:53.009Z,390
2017-04-05T08:30:17.773Z,400
2017-04-05T08:32:42.498Z,410
2017-04-05T08:35:07.187Z,410
2017-04-05T08:37:31.889Z,405
2017-04-05T08:39:56.572Z,350
2017-04-05T08:42:21.296Z,350
2017-04-05T08:44:45.894Z,350
2017-04-05T08:47:10.484Z,365
2017-04-05T08:49:26.562Z,380
2017-04-05T08:51:51.258Z,310
2017-04-05T08:54:07.342Z,340
2017-04-05T08:56:31.939Z,315
2017-04-05T08:58:56.380Z,315
2017-04-05T09:01:20.944Z,310
2017-04-05T09:05:21.856Z,295
2017-04-05T09:09:48.307Z,290
2017-04-05T09:12:12.848Z,295
2017-04-05T09:14:37.385Z,290
2017-04-05T09:17:01.946Z,285
2017-04-05T09:19:26.405Z,285
2017-04-05T09:21:50.995Z,280
2017-04-05T09:24:15.595Z,290
2017-04-05T09:26:40.086Z,285
2017-04-05T09:29:04.598Z,285
2017-04-05T09:31:29.206Z,285
2017-04-05T09:33:53.732Z,275
2017-04-05T09:36:18.138Z,270
2017-04-05T09:38:42.668Z,255
2017-04-05T09:41:07.203Z,240
2017-04-05T09:43:31.745Z,240
2017-04-05T09:45:56.222Z,240
2017-04-05T09:50:31.296Z,235
2017-04-05T09:57:08.492Z,220
2017-04-05T09:59:33.031Z,215
2017-04-05T10:01:57.593Z,220
2017-04-05T10:04:22.083Z,210
2017-04-05T10:06:46.658Z,210
2017-04-05T10:09:11.195Z,175
2017-04-05T10:13:37.669Z,195
2017-04-05T10:16:02.234Z,195
2017-04-05T10:18:26.627Z,170
2017-04-05T10:20:42.620Z,150
2017-04-05T10:23:07.028Z,175
2017-04-05T10:25:31.389Z,185
2017-04-05T10:27:55.808Z,180
2017-04-05T10:30:20.103Z,175
2017-04-05T10:32:44.523Z,165
2017-04-05T10:35:00.602Z,160
2017-04-05T10:37:24.914Z,155
2017-04-05T10:39:49.250Z,150
2017-04-05T10:42:13.648Z,155
2017-04-05T10:44:38.040Z,155
2017-04-05T10:47:02.420Z,150
2017-04-05T10:49:26.770Z,145
2017-04-05T10:51:51.075Z,155
2017-04-05T10:54:15.413Z,145
2017-04-05T10:56:39.732Z,145
2017-04-05T10:59:04.049Z,145
2017-04-05T11:01:28.324Z,145
2017-04-05T11:05:54.542Z,140
2017-04-05T11:08:10.391Z,135
2017-04-05T11:10:34.621Z,135
2017-04-05T11:12:50.478Z,130
2017-04-05T11:15:14.687Z,125
2017-04-05T11:17:38.737Z,125
2017-04-05T11:20:02.921Z,115
2017-04-05T11:22:27.151Z,115
2017-04-05T11:24:51.491Z,115
2017-04-05T11:27:15.660Z,110
2017-04-05T11:29:40.000Z,110
2017-04-05T11:32:04.238Z,110
2017-04-05T11:34:28.348Z,110
2017-04-05T11:36:52.453Z,110
2017-04-05T11:39:16.655Z,105
2017-04-05T11:43:51.308Z,100
2017-04-05T11:46:15.491Z,100
2017-04-05T11:48:39.721Z,100
2017-04-05T11:51:03.825Z,95
2017-04-05T11:53:27.972Z,95
2017-04-05T11:55:52.196Z,95
2017-04-05T11:58:16.351Z,95
2017-04-05T12:00:40.628Z,95
2017-04-05T12:03:04.822Z,95
2017-04-05T12:05:28.968Z,100
2017-04-05T12:07:53.143Z,100
2017-04-05T12:10:17.271Z,100
2017-04-05T12:12:41.564Z,95
2017-04-05T12:15:05.791Z,110
2017-04-05T12:17:29.939Z,110
2017-04-05T12:19:54.121Z,100
2017-04-05T12:22:18.333Z,105
2017-04-05T12:24:42.521Z,105
2017-04-05T12:29:18.413Z,105
2017-04-05T12:31:42.741Z,110
2017-04-05T12:34:06.839Z,110
2017-04-05T12:36:30.980Z,110
2017-04-05T12:38:55.182Z,105
2017-04-05T12:41:19.300Z,105
2017-04-05T12:45:19.676Z,110
2017-04-05T12:47:35.460Z,115
2017-04-05T12:49:42.762Z,115
2017-04-05T12:52:06.988Z,115
2017-04-05T12:56:24.661Z,115
2017-04-05T12:58:48.900Z,115
2017-04-05T13:01:13.119Z,115
2017-04-05T13:03:28.884Z,115
2017-04-05T13:05:53.106Z,110
2017-04-05T13:08:17.233Z,110
2017-04-05T13:10:41.522Z,110
2017-04-05T13:13:05.583Z,110
2017-04-05T13:15:29.806Z,110
2017-04-05T13:17:54.060Z,110
2017-04-05T13:22:19.743Z,110
2017-04-05T13:24:44.051Z,105
2017-04-05T13:27:08.320Z,105
2017-04-05T13:29:24.138Z,100
2017-04-05T13:31:49.249Z,100
2017-04-05T13:34:13.278Z,105
2017-04-05T13:36:37.455Z,105
2017-04-05T13:39:01.686Z,105
2017-04-05T13:41:25.944Z,100
2017-04-05T13:43:50.211Z,105
2017-04-05T13:46:05.957Z,105
2017-04-05T13:48:30.297Z,100
2017-04-05T13:52:56.507Z,95
2017-04-05T13:55:20.754Z,95
2017-04-05T13:57:44.994Z,95
2017-04-05T14:00:09.225Z,90
2017-04-05T14:02:33.463Z,90
2017-04-05T14:04:57.731Z,90
2017-04-05T14:07:21.895Z,90
2017-04-05T14:09:46.096Z,90
2017-04-05T14:12:10.296Z,85
2017-04-05T14:14:34.536Z,80
2017-04-05T14:18:34.969Z,75
2017-04-05T14:23:10.690Z,70
2017-04-05T14:25:34.935Z,70
2017-04-05T14:27:50.708Z,75
2017-04-05T14:30:14.919Z,75
2017-04-05T14:32:39.100Z,75
2017-04-05T14:34:54.811Z,80
2017-04-05T14:37:19.010Z,80
2017-04-05T14:39:43.179Z,80
2017-04-05T14:42:07.349Z,75
2017-04-05T14:44:31.528Z,75
2017-04-05T14:46:55.693Z,75
2017-04-05T14:49:19.753Z,75
2017-04-05T14:51:43.855Z,75
2017-04-05T14:54:07.863Z,70
2017-04-05T14:56:31.959Z,70
2017-04-05T14:58:55.994Z,70
2017-04-05T15:01:20.038Z,70
2017-04-05T15:03:44.100Z,70
2017-04-05T15:06:08.104Z,70
2017-04-05T15:08:32.190Z,65
2017-04-05T15:10:56.231Z,65
2017-04-05T15:13:20.357Z,65
2017-04-05T15:15:44.414Z,70
2017-04-05T15:18:08.489Z,70
2017-04-05T15:20:32.549Z,65
2017-04-05T15:25:06.488Z,65
2017-04-05T15:27:30.599Z,65
2017-04-05T15:29:54.608Z,65
2017-04-05T15:32:18.680Z,65
2017-04-05T15:34:42.722Z,60
2017-04-05T15:37:06.762Z,60
2017-04-05T15:39:30.770Z,60
2017-04-05T15:41:54.729Z,60
2017-04-05T15:44:18.797Z,55
2017-04-05T15:46:42.836Z,55
2017-04-05T15:49:06.840Z,55
2017-04-05T15:51:30.788Z,50
2017-04-05T15:53:46.403Z,50
2017-04-05T15:56:10.320Z,50
2017-04-05T15:58:34.294Z,50
2017-04-05T16:00:58.350Z,50
2017-04-05T16:03:22.232Z,50
2017-04-05T16:05:46.279Z,45
2017-04-05T16:08:10.235Z,45
2017-04-05T16:10:34.663Z,40
2017-04-05T16:15:08.546Z,40
2017-04-05T16:17:24.079Z,35
2017-04-05T16:19:48.056Z,35
2017-04-05T16:22:12.015Z,35
2017-04-05T16:24:37.049Z,35
2017-04-05T16:27:00.990Z,35
2017-04-05T16:29:24.945Z,35
2017-04-05T16:31:48.820Z,35
2017-04-05T16:34:12.746Z,35
2017-04-05T16:36:28.302Z,35
2017-04-05T16:38:52.238Z,35
2017-04-05T16:41:16.140Z,30
2017-04-05T16:43:40.035Z,30
2017-04-05T16:45:55.480Z,30
2017-04-05T16:48:19.351Z,25
2017-04-05T16:50:43.288Z,25
2017-04-05T16:53:07.240Z,25
2017-04-05T16:55:31.162Z,20
2017-04-05T16:57:55.078Z,20
2017-04-05T17:00:18.952Z,20
2017-04-05T17:04:44.709Z,15
2017-04-05T17:08:45.150Z,15
2017-04-05T17:11:09.167Z,15
2017-04-05T17:13:24.639Z,10
2017-04-05T17:15:48.516Z,10
2017-04-05T17:18:12.390Z,10
2017-04-05T17:20:36.250Z,10
2017-04-05T17:23:00.162Z,10
2017-04-05T17:25:25.034Z,5
2017-04-05T17:27:48.931Z,5
2017-04-05T17:30:12.757Z,5
2017-04-05T17:32:36.643Z,5
2017-04-05T17:35:00.513Z,5
2017-04-05T17:37:24.384Z,5
2017-04-05T17:39:48.278Z,5
2017-04-05T17:42:12.144Z,5
2017-04-05T17:46:54.805Z,0
2017-04-05T17:49:18.675Z,0
2017-04-05T17:51:42.492Z,0
2017-04-05T17:54:06.278Z,0
2017-04-05T17:56:30.046Z,0
2017-04-05T17:58:53.810Z,0
2017-04-05T18:03:10.529Z,0
2017-04-05T18:05:34.278Z,0
2017-04-05T18:09:50.887Z,0
2017-04-05T18:12:14.608Z,0
2017-04-05T18:14:38.338Z,0
2017-04-05T18:17:02.023Z,0
2017-04-05T18:19:25.672Z,0
2017-04-05T18:23:59.166Z,0
2017-04-05T18:26:22.854Z,0
2017-04-05T18:28:46.489Z,0
2017-04-05T18:31:01.740Z,0
2017-04-05T18:33:25.386Z,0
2017-04-05T18:35:48.984Z,0
2017-04-05T18:38:12.634Z,0
2017-04-05T18:40:36.243Z,0
2017-04-05T18:42:59.892Z,0
2017-04-05T18:45:23.529Z,0
2017-04-05T18:47:47.145Z,0
2017-04-05T18:50:10.760Z,0
2017-04-05T18:52:34.341Z,0
2017-04-05T18:54:58.062Z,0
2017-04-05T18:57:21.619Z,0
2017-04-05T18:59:45.177Z,0
2017-04-05T19:02:08.742Z,0
2017-04-05T19:04:32.290Z,0
2017-04-05T19:06:55.876Z,0
2017-04-05T19:09:19.478Z,0
2017-04-05T19:11:43.054Z,0
2017-04-05T19:14:06.651Z,0
2017-04-05T19:16:30.229Z,0
2017-04-05T19:18:53.790Z,0
2017-04-05T19:21:17.397Z,0
2017-04-05T19:23:41.203Z,0
2017-04-05T19:26:04.759Z,0
2017-04-05T19:28:28.315Z,0
2017-04-05T19:30:51.909Z,0
2017-04-05T19:33:15.485Z,0
2017-04-05T19:35:39.060Z,0
2017-04-05T19:38:02.668Z,0
2017-04-05T19:40:26.216Z,0
2017-04-05T19:42:49.808Z,0
2017-04-05T19:45:13.378Z,0
2017-04-05T19:47:36.925Z,0
2017-04-05T19:50:00.678Z,0
2017-04-05T19:52:24.210Z,0
2017-04-05T19:54:47.703Z,0
2017-04-05T19:57:11.284Z,0
2017-04-05T19:59:34.871Z,0
2017-04-05T20:01:58.530Z,0
2017-04-05T20:04:22.161Z,0
2017-04-05T20:06:37.327Z,0
2017-04-05T20:08:52.494Z,0
2017-04-05T20:11:16.070Z,0
2017-04-05T20:16:10.357Z,0
2017-04-05T20:18:33.974Z,0
2017-04-05T20:20:57.542Z,0
2017-04-05T20:23:21.189Z,0
2017-04-05T20:27:12.859Z,0
2017-04-05T20:29:36.546Z,0
2017-04-05T20:32:00.202Z,0
2017-04-05T20:34:23.774Z,0
2017-04-05T20:36:47.350Z,0
2017-04-05T20:39:10.954Z,0
2017-04-05T20:41:34.593Z,0
2017-04-05T20:43:58.216Z,0
2017-04-05T20:46:21.753Z,0
2017-04-05T20:48:45.397Z,0
2017-04-05T20:51:08.985Z,0
2017-04-05T20:53:34.294Z,0
2017-04-05T20:55:57.058Z,0
2017-04-05T20:58:20.712Z,0
2017-04-05T21:00:35.882Z,0
2017-04-05T21:02:59.450Z,0
2017-04-05T21:05:23.010Z,0
2017-04-05T21:07:38.202Z,0
2017-04-05T21:10:01.747Z,0
2017-04-05T21:12:16.905Z,0
2017-04-05T21:14:32.089Z,0
2017-04-05T21:16:47.276Z,0
2017-04-05T21:19:02.444Z,0
2017-04-05T21:21:17.604Z,0
2017-04-05T21:23:41.795Z,0
2017-04-05T21:26:04.814Z,0
2017-04-05T21:30:29.596Z,0
2017-04-05T21:32:53.238Z,0
2017-04-05T21:35:16.819Z,0
2017-04-05T21:37:32.026Z,0
2017-04-05T21:39:55.616Z,0
2017-04-05T21:42:19.199Z,0
2017-04-05T21:46:43.914Z,0
2017-04-05T21:49:07.544Z,0
2017-04-05T21:51:31.693Z,0
2017-04-05T21:53:55.281Z,0
2017-04-05T21:56:18.850Z,0
2017-04-05T21:58:25.584Z,0
2017-04-05T22:00:49.187Z,0
2017-04-05T22:03:12.762Z,0
2017-04-05T22:07:29.738Z,0
2017-04-05T22:09:53.962Z,0
2017-04-05T22:12:16.924Z,0
2017-04-05T22:14:40.492Z,0
2017-04-05T22:16:47.241Z,0
2017-04-05T22:19:10.813Z,0
2017-04-05T22:21:34.411Z,0
2017-04-05T22:23:57.974Z,0
2017-04-05T22:28:31.253Z,0
2017-04-05T22:30:54.841Z,0
2017-04-05T22:33:18.570Z,0
2017-04-05T22:35:42.031Z,0
2017-04-05T22:37:57.203Z,0
2017-04-05T22:40:20.621Z,0
2017-04-05T22:42:44.136Z,0
2017-04-05T22:45:07.741Z,0
2017-04-05T22:49:32.963Z,0
2017-04-05T22:51:56.474Z,0
2017-04-05T22:54:19.930Z,0
2017-04-05T22:56:43.596Z,0
2017-04-05T22:59:06.963Z,0
2017-04-05T23:01:30.517Z,0
2017-04-05T23:03:54.015Z,0
2017-04-05T23:06:17.595Z,0
2017-04-05T23:08:41.142Z,0
2017-04-05T23:11:04.718Z,0
2017-04-05T23:15:21.034Z,0
2017-04-05T23:17:44.588Z,0
2017-04-05T23:20:08.102Z,0
2017-04-05T23:22:31.539Z,0
2017-04-05T23:24:54.986Z,0
2017-04-05T23:27:18.434Z,0
2017-04-05T23:29:42.114Z,0
2017-04-05T23:32:05.570Z,0
2017-04-05T23:34:29.045Z,0
2017-04-05T23:36:52.431Z,0
2017-04-05T23:39:15.886Z,0
2017-04-05T23:41:39.397Z,0
2017-04-05T23:44:02.860Z,0
2017-04-05T23:48:35.976Z,0
2017-04-05T23:50:59.529Z,0
2017-04-05T23:53:23.093Z,0
2017-04-05T23:55:38.258Z,0
2017-04-05T23:58:01.722Z,0
